Pine Bush, New York
Current Conditions -  °F | °C
As of 2:54 PM on Wednesday 26 Nov 2014 (Local Time) from KMGJ Reporting Station
Light Snow Light Snow  
Wind Chill: -5°   Ceiling: 700
Heat Index:   Visibility: 0.75mi
Dew Point: -1°   Wind: 17mph
Humidity: 92%   Direction: 40°NE
Pressure: 29.91"   Gusts: 23mph
Location:  41.61°N, 74.3°W
Report Text: KMGJ 261954Z AUTO 04015G20KT 3/4SM -SN BR OVC007 01/M01 A2991 RMK AO2 SLP130 P0004 T00061006 TSNO
Loading
Personal Weather Stations






























Interactive Weather Map New forecast layout! Learn more

10-Day Weather Forecast

Advertisements
Track Severe Weather on mobile